sensor_id;sensor_type;location;lat;lon;timestamp;P1;durP1;ratioP1;P2;durP2;ratioP2
55350;SDS011;62194;49.480;10.986;2023-11-18T00:00:04;7.78;;;5.60;;
55350;SDS011;62194;49.480;10.986;2023-11-18T00:00:16;7.06;;;5.61;;
55350;SDS011;62194;49.480;10.986;2023-11-18T00:00:24;7.18;;;5.97;;
55350;SDS011;62194;49.480;10.986;2023-11-18T00:00:30;7.03;;;6.20;;
55350;SDS011;62194;49.480;10.986;2023-11-18T00:00:35;7.27;;;6.10;;
55350;SDS011;62194;49.480;10.986;2023-11-18T00:00:40;7.30;;;6.17;;
55350;SDS011;62194;49.480;10.986;2023-11-18T00:00:46;8.20;;;6.27;;
55350;SDS011;62194;49.480;10.986;2023-11-18T00:00:52;8.43;;;5.97;;
55350;SDS011;62194;49.480;10.986;2023-11-18T00:00:57;9.00;;;5.90;;
55350;SDS011;62194;49.480;10.986;2023-11-18T00:01:03;8.53;;;5.87;;
55350;SDS011;62194;49.480;10.986;2023-11-18T00:01:08;8.38;;;5.80;;
55350;SDS011;62194;49.480;10.986;2023-11-18T00:01:14;8.60;;;5.70;;
55350;SDS011;62194;49.480;10.986;2023-11-18T00:01:19;8.93;;;5.70;;
55350;SDS011;62194;49.480;10.986;2023-11-18T00:01:25;8.50;;;5.80;;
55350;SDS011;62194;49.480;10.986;2023-11-18T00:01:35;8.65;;;5.82;;
55350;SDS011;62194;49.480;10.986;2023-11-18T00:01:41;8.23;;;5.60;;
55350;SDS011;62194;49.480;10.986;2023-11-18T00:01:47;8.07;;;5.65;;
55350;SDS011;62194;49.480;10.986;2023-11-18T00:01:52;8.17;;;5.67;;
55350;SDS011;62194;49.480;10.986;2023-11-18T00:01:57;7.83;;;5.67;;
55350;SDS011;62194;49.480;10.986;2023-11-18T00:02:02;7.63;;;5.70;;
55350;SDS011;62194;49.480;10.986;2023-11-18T00:02:09;7.95;;;5.72;;
55350;SDS011;62194;49.480;10.986;2023-11-18T00:02:14;8.03;;;5.90;;
55350;SDS011;62194;49.480;10.986;2023-11-18T00:02:20;7.45;;;5.75;;
55350;SDS011;62194;49.480;10.986;2023-11-18T00:02:25;7.40;;;5.70;;
55350;SDS011;62194;49.480;10.986;2023-11-18T00:02:30;7.10;;;5.67;;
55350;SDS011;62194;49.480;10.986;2023-11-18T00:02:38;7.57;;;5.63;;
55350;SDS011;62194;49.480;10.986;2023-11-18T00:02:44;7.50;;;5.60;;
55350;SDS011;62194;49.480;10.986;2023-11-18T00:02:49;7.10;;;5.57;;
55350;SDS011;62194;49.480;10.986;2023-11-18T00:02:55;7.10;;;5.60;;
55350;SDS011;62194;49.480;10.986;2023-11-18T00:03:00;7.90;;;5.73;;
55350;SDS011;62194;49.480;10.986;2023-11-18T00:03:05;7.32;;;5.85;;
55350;SDS011;62194;49.480;10.986;2023-11-18T00:03:11;7.03;;;5.87;;
55350;SDS011;62194;49.480;10.986;2023-11-18T00:03:16;7.03;;;5.60;;
55350;SDS011;62194;49.480;10.986;2023-11-18T00:03:21;7.20;;;5.55;;
55350;SDS011;62194;49.480;10.986;2023-11-18T00:03:27;7.10;;;5.40;;
55350;SDS011;62194;49.480;10.986;2023-11-18T00:03:32;6.70;;;5.30;;
55350;SDS011;62194;49.480;10.986;2023-11-18T00:03:37;6.87;;;5.17;;
55350;SDS011;62194;49.480;10.986;2023-11-18T00:03:43;6.83;;;5.13;;
55350;SDS011;62194;49.480;10.986;2023-11-18T00:03:48;6.72;;;5.28;;
55350;SDS011;62194;49.480;10.986;2023-11-18T00:03:54;6.80;;;5.40;;
55350;SDS011;62194;49.480;10.986;2023-11-18T00:04:00;6.70;;;5.32;;
55350;SDS011;62194;49.480;10.986;2023-11-18T00:04:06;6.68;;;5.25;;
55350;SDS011;62194;49.480;10.986;2023-11-18T00:04:14;7.57;;;5.67;;
55350;SDS011;62194;49.480;10.986;2023-11-18T00:04:23;8.02;;;5.60;;
55350;SDS011;62194;49.480;10.986;2023-11-18T00:04:28;8.23;;;5.63;;
55350;SDS011;62194;49.480;10.986;2023-11-18T00:04:33;8.05;;;5.50;;
55350;SDS011;62194;49.480;10.986;2023-11-18T00:04:38;7.63;;;5.47;;
55350;SDS011;62194;49.480;10.986;2023-11-18T00:04:44;6.90;;;5.30;;
55350;SDS011;62194;49.480;10.986;2023-11-18T00:04:49;6.78;;;5.35;;
55350;SDS011;62194;49.480;10.986;2023-11-18T00:04:54;6.70;;;5.47;;
55350;SDS011;62194;49.480;10.986;2023-11-18T00:05:00;7.97;;;5.77;;
55350;SDS011;62194;49.480;10.986;2023-11-18T00:05:05;8.50;;;6.13;;
55350;SDS011;62194;49.480;10.986;2023-11-18T00:05:12;8.64;;;6.02;;
55350;SDS011;62194;49.480;10.986;2023-11-18T00:05:18;8.75;;;6.10;;
55350;SDS011;62194;49.480;10.986;2023-11-18T00:05:24;8.87;;;6.10;;
55350;SDS011;62194;49.480;10.986;2023-11-18T00:05:29;8.05;;;5.95;;
55350;SDS011;62194;49.480;10.986;2023-11-18T00:05:34;7.97;;;5.67;;
55350;SDS011;62194;49.480;10.986;2023-11-18T00:05:40;8.10;;;5.80;;
55350;SDS011;62194;49.480;10.986;2023-11-18T00:05:45;7.82;;;5.85;;
55350;SDS011;62194;49.480;10.986;2023-11-18T00:05:50;7.30;;;5.57;;
55350;SDS011;62194;49.480;10.986;2023-11-18T00:05:56;6.67;;;5.33;;
55350;SDS011;62194;49.480;10.986;2023-11-18T00:06:01;6.32;;;5.15;;
55350;SDS011;62194;49.480;10.986;2023-11-18T00:06:06;5.60;;;4.93;;
55350;SDS011;62194;49.480;10.986;2023-11-18T00:06:12;5.68;;;4.97;;
55350;SDS011;62194;49.480;10.986;2023-11-18T00:06:18;6.63;;;5.30;;
55350;SDS011;62194;49.480;10.986;2023-11-18T00:06:23;7.97;;;5.93;;
55350;SDS011;62194;49.480;10.986;2023-11-18T00:06:28;9.37;;;6.67;;
55350;SDS011;62194;49.480;10.986;2023-11-18T00:06:34;10.57;;;7.43;;
55350;SDS011;62194;49.480;10.986;2023-11-18T00:06:39;11.80;;;7.93;;
55350;SDS011;62194;49.480;10.986;2023-11-18T00:06:44;13.60;;;8.47;;
55350;SDS011;62194;49.480;10.986;2023-11-18T00:06:50;13.87;;;8.57;;
55350;SDS011;62194;49.480;10.986;2023-11-18T00:06:56;14.57;;;8.30;;
55350;SDS011;62194;49.480;10.986;2023-11-18T00:07:03;13.73;;;7.93;;
55350;SDS011;62194;49.480;10.986;2023-11-18T00:07:09;13.93;;;8.18;;
55350;SDS011;62194;49.480;10.986;2023-11-18T00:07:14;13.83;;;8.27;;
55350;SDS011;62194;49.480;10.986;2023-11-18T00:07:19;14.53;;;8.97;;
55350;SDS011;62194;49.480;10.986;2023-11-18T00:07:25;15.00;;;9.93;;
55350;SDS011;62194;49.480;10.986;2023-11-18T00:07:30;15.80;;;11.00;;
55350;SDS011;62194;49.480;10.986;2023-11-18T00:07:37;18.04;;;11.92;;
55350;SDS011;62194;49.480;10.986;2023-11-18T00:07:43;18.40;;;12.60;;
55350;SDS011;62194;49.480;10.986;2023-11-18T00:07:48;17.87;;;12.40;;
55350;SDS011;62194;49.480;10.986;2023-11-18T00:07:54;16.30;;;11.87;;
55350;SDS011;62194;49.480;10.986;2023-11-18T00:08:00;14.85;;;11.00;;
55350;SDS011;62194;49.480;10.986;2023-11-18T00:08:05;13.67;;;10.23;;
55350;SDS011;62194;49.480;10.986;2023-11-18T00:08:11;12.90;;;9.80;;
55350;SDS011;62194;49.480;10.986;2023-11-18T00:08:16;12.60;;;9.40;;
55350;SDS011;62194;49.480;10.986;2023-11-18T00:08:21;12.43;;;9.23;;
55350;SDS011;62194;49.480;10.986;2023-11-18T00:08:27;12.67;;;9.30;;
55350;SDS011;62194;49.480;10.986;2023-11-18T00:08:32;12.60;;;9.20;;
55350;SDS011;62194;49.480;10.986;2023-11-18T00:08:37;11.90;;;8.90;;
55350;SDS011;62194;49.480;10.986;2023-11-18T00:08:42;11.80;;;8.77;;
55350;SDS011;62194;49.480;10.986;2023-11-18T00:08:48;11.93;;;8.70;;
55350;SDS011;62194;49.480;10.986;2023-11-18T00:08:53;12.00;;;8.57;;
55350;SDS011;62194;49.480;10.986;2023-11-18T00:08:58;12.02;;;8.63;;
55350;SDS011;62194;49.480;10.986;2023-11-18T00:09:04;12.17;;;8.93;;
55350;SDS011;62194;49.480;10.986;2023-11-18T00:09:11;12.40;;;8.90;;
55350;SDS011;62194;49.480;10.986;2023-11-18T00:09:19;12.01;;;8.84;;
55350;SDS011;62194;49.480;10.986;2023-11-18T00:09:25;11.57;;;8.63;;
55350;SDS011;62194;49.480;10.986;2023-11-18T00:09:30;11.25;;;8.43;;
55350;SDS011;62194;49.480;10.986;2023-11-18T00:09:36;10.77;;;8.13;;
55350;SDS011;62194;49.480;10.986;2023-11-18T00:09:41;9.70;;;7.88;;
55350;SDS011;62194;49.480;10.986;2023-11-18T00:09:50;9.33;;;7.57;;
55350;SDS011;62194;49.480;10.986;2023-11-18T00:09:56;9.43;;;7.53;;
55350;SDS011;62194;49.480;10.986;2023-11-18T00:10:01;9.52;;;7.40;;
55350;SDS011;62194;49.480;10.986;2023-11-18T00:10:07;9.57;;;7.40;;
55350;SDS011;62194;49.480;10.986;2023-11-18T00:10:13;11.07;;;7.33;;
55350;SDS011;62194;49.480;10.986;2023-11-18T00:10:18;11.20;;;7.43;;
55350;SDS011;62194;49.480;10.986;2023-11-18T00:10:24;11.23;;;7.40;;
55350;SDS011;62194;49.480;10.986;2023-11-18T00:10:29;11.93;;;7.40;;
55350;SDS011;62194;49.480;10.986;2023-11-18T00:10:34;12.07;;;7.38;;
55350;SDS011;62194;49.480;10.986;2023-11-18T00:10:39;11.87;;;7.43;;
55350;SDS011;62194;49.480;10.986;2023-11-18T00:10:45;10.60;;;7.30;;
55350;SDS011;62194;49.480;10.986;2023-11-18T00:10:50;10.23;;;7.10;;
55350;SDS011;62194;49.480;10.986;2023-11-18T00:10:55;9.77;;;7.00;;
55350;SDS011;62194;49.480;10.986;2023-11-18T00:11:01;9.00;;;6.73;;
55350;SDS011;62194;49.480;10.986;2023-11-18T00:11:06;8.53;;;6.70;;
55350;SDS011;62194;49.480;10.986;2023-11-18T00:11:11;8.20;;;6.57;;
55350;SDS011;62194;49.480;10.986;2023-11-18T00:11:18;8.24;;;6.54;;
55350;SDS011;62194;49.480;10.986;2023-11-18T00:11:23;8.43;;;6.50;;
55350;SDS011;62194;49.480;10.986;2023-11-18T00:11:29;8.40;;;6.40;;
55350;SDS011;62194;49.480;10.986;2023-11-18T00:11:34;8.40;;;6.32;;
55350;SDS011;62194;49.480;10.986;2023-11-18T00:11:42;8.50;;;6.40;;
55350;SDS011;62194;49.480;10.986;2023-11-18T00:11:48;8.50;;;6.29;;
55350;SDS011;62194;49.480;10.986;2023-11-18T00:11:54;8.15;;;6.18;;
55350;SDS011;62194;49.480;10.986;2023-11-18T00:11:59;8.37;;;6.20;;
55350;SDS011;62194;49.480;10.986;2023-11-18T00:12:04;8.13;;;5.97;;
55350;SDS011;62194;49.480;10.986;2023-11-18T00:12:10;7.78;;;5.80;;
55350;SDS011;62194;49.480;10.986;2023-11-18T00:12:15;7.80;;;5.97;;
55350;SDS011;62194;49.480;10.986;2023-11-18T00:12:21;8.32;;;5.97;;
55350;SDS011;62194;49.480;10.986;2023-11-18T00:12:29;8.75;;;5.98;;
55350;SDS011;62194;49.480;10.986;2023-11-18T00:12:34;9.00;;;6.00;;
55350;SDS011;62194;49.480;10.986;2023-11-18T00:12:40;9.30;;;6.03;;
55350;SDS011;62194;49.480;10.986;2023-11-18T00:12:46;9.33;;;5.83;;
55350;SDS011;62194;49.480;10.986;2023-11-18T00:12:52;8.80;;;5.65;;
55350;SDS011;62194;49.480;10.986;2023-11-18T00:12:57;8.17;;;5.67;;
55350;SDS011;62194;49.480;10.986;2023-11-18T00:13:02;8.07;;;5.80;;
55350;SDS011;62194;49.480;10.986;2023-11-18T00:13:08;7.44;;;5.50;;
55350;SDS011;62194;49.480;10.986;2023-11-18T00:13:14;6.90;;;5.33;;
55350;SDS011;62194;49.480;10.986;2023-11-18T00:13:20;6.60;;;5.23;;
55350;SDS011;62194;49.480;10.986;2023-11-18T00:13:26;6.55;;;5.10;;
55350;SDS011;62194;49.480;10.986;2023-11-18T00:13:31;6.30;;;5.00;;
55350;SDS011;62194;49.480;10.986;2023-11-18T00:13:36;6.77;;;5.27;;
55350;SDS011;62194;49.480;10.986;2023-11-18T00:13:47;6.93;;;5.33;;
55350;SDS011;62194;49.480;10.986;2023-11-18T00:13:52;6.90;;;5.37;;
55350;SDS011;62194;49.480;10.986;2023-11-18T00:13:58;7.08;;;5.46;;
55350;SDS011;62194;49.480;10.986;2023-11-18T00:14:04;6.90;;;5.50;;
55350;SDS011;62194;49.480;10.986;2023-11-18T00:14:10;7.22;;;5.60;;
55350;SDS011;62194;49.480;10.986;2023-11-18T00:14:16;7.70;;;5.73;;
55350;SDS011;62194;49.480;10.986;2023-11-18T00:14:23;8.33;;;5.90;;
55350;SDS011;62194;49.480;10.986;2023-11-18T00:14:28;8.30;;;5.83;;
55350;SDS011;62194;49.480;10.986;2023-11-18T00:14:33;8.30;;;5.83;;
55350;SDS011;62194;49.480;10.986;2023-11-18T00:14:38;7.82;;;5.72;;
55350;SDS011;62194;49.480;10.986;2023-11-18T00:14:45;7.80;;;5.90;;
55350;SDS011;62194;49.480;10.986;2023-11-18T00:14:51;7.75;;;5.95;;
55350;SDS011;62194;49.480;10.986;2023-11-18T00:14:56;8.23;;;5.97;;
55350;SDS011;62194;49.480;10.986;2023-11-18T00:15:02;8.33;;;6.00;;
55350;SDS011;62194;49.480;10.986;2023-11-18T00:15:13;8.77;;;5.85;;
55350;SDS011;62194;49.480;10.986;2023-11-18T00:15:18;8.40;;;5.80;;
55350;SDS011;62194;49.480;10.986;2023-11-18T00:15:25;7.68;;;5.75;;
55350;SDS011;62194;49.480;10.986;2023-11-18T00:15:30;7.60;;;5.77;;
55350;SDS011;62194;49.480;10.986;2023-11-18T00:15:36;7.10;;;5.70;;
55350;SDS011;62194;49.480;10.986;2023-11-18T00:15:41;6.97;;;5.80;;
55350;SDS011;62194;49.480;10.986;2023-11-18T00:15:47;7.70;;;5.77;;
55350;SDS011;62194;49.480;10.986;2023-11-18T00:15:53;8.10;;;5.90;;
55350;SDS011;62194;49.480;10.986;2023-11-18T00:15:58;8.73;;;6.17;;
55350;SDS011;62194;49.480;10.986;2023-11-18T00:16:03;9.00;;;6.47;;
55350;SDS011;62194;49.480;10.986;2023-11-18T00:16:10;10.23;;;6.93;;
55350;SDS011;62194;49.480;10.986;2023-11-18T00:16:20;9.79;;;7.22;;
55350;SDS011;62194;49.480;10.986;2023-11-18T00:16:27;9.60;;;7.13;;
55350;SDS011;62194;49.480;10.986;2023-11-18T00:16:34;10.20;;;6.93;;
55350;SDS011;62194;49.480;10.986;2023-11-18T00:16:40;9.33;;;6.67;;
55350;SDS011;62194;49.480;10.986;2023-11-18T00:16:45;9.37;;;6.70;;
55350;SDS011;62194;49.480;10.986;2023-11-18T00:16:50;8.95;;;6.40;;
55350;SDS011;62194;49.480;10.986;2023-11-18T00:16:56;8.83;;;6.60;;
55350;SDS011;62194;49.480;10.986;2023-11-18T00:17:04;8.23;;;6.93;;
55350;SDS011;62194;49.480;10.986;2023-11-18T00:17:09;9.35;;;7.22;;
55350;SDS011;62194;49.480;10.986;2023-11-18T00:17:14;10.10;;;7.30;;
55350;SDS011;62194;49.480;10.986;2023-11-18T00:17:20;10.93;;;7.65;;
55350;SDS011;62194;49.480;10.986;2023-11-18T00:17:27;11.70;;;7.87;;
55350;SDS011;62194;49.480;10.986;2023-11-18T00:17:33;13.15;;;7.70;;
55350;SDS011;62194;49.480;10.986;2023-11-18T00:17:38;13.48;;;7.50;;
55350;SDS011;62194;49.480;10.986;2023-11-18T00:17:44;14.53;;;7.70;;
55350;SDS011;62194;49.480;10.986;2023-11-18T00:17:49;14.90;;;7.82;;
55350;SDS011;62194;49.480;10.986;2023-11-18T00:17:54;14.53;;;7.70;;
55350;SDS011;62194;49.480;10.986;2023-11-18T00:18:00;14.63;;;7.97;;
55350;SDS011;62194;49.480;10.986;2023-11-18T00:18:05;13.10;;;8.10;;
55350;SDS011;62194;49.480;10.986;2023-11-18T00:18:11;11.77;;;7.95;;
55350;SDS011;62194;49.480;10.986;2023-11-18T00:18:17;10.25;;;7.82;;
55350;SDS011;62194;49.480;10.986;2023-11-18T00:18:24;10.32;;;7.80;;
55350;SDS011;62194;49.480;10.986;2023-11-18T00:18:29;9.40;;;7.55;;
55350;SDS011;62194;49.480;10.986;2023-11-18T00:18:36;9.44;;;7.44;;
55350;SDS011;62194;49.480;10.986;2023-11-18T00:18:42;9.77;;;7.35;;
55350;SDS011;62194;49.480;10.986;2023-11-18T00:18:48;9.55;;;7.07;;
55350;SDS011;62194;49.480;10.986;2023-11-18T00:18:53;8.77;;;6.83;;
55350;SDS011;62194;49.480;10.986;2023-11-18T00:18:58;9.07;;;6.77;;
55350;SDS011;62194;49.480;10.986;2023-11-18T00:19:04;9.13;;;6.80;;
55350;SDS011;62194;49.480;10.986;2023-11-18T00:19:10;9.33;;;6.77;;
55350;SDS011;62194;49.480;10.986;2023-11-18T00:19:15;9.37;;;6.90;;
55350;SDS011;62194;49.480;10.986;2023-11-18T00:19:20;9.45;;;6.88;;
55350;SDS011;62194;49.480;10.986;2023-11-18T00:19:26;9.30;;;6.90;;
55350;SDS011;62194;49.480;10.986;2023-11-18T00:19:31;9.33;;;6.63;;
55350;SDS011;62194;49.480;10.986;2023-11-18T00:19:36;9.43;;;6.63;;
55350;SDS011;62194;49.480;10.986;2023-11-18T00:19:42;9.13;;;6.53;;
55350;SDS011;62194;49.480;10.986;2023-11-18T00:19:50;9.42;;;6.42;;
55350;SDS011;62194;49.480;10.986;2023-11-18T00:19:55;9.57;;;6.53;;
55350;SDS011;62194;49.480;10.986;2023-11-18T00:20:01;10.07;;;6.75;;
55350;SDS011;62194;49.480;10.986;2023-11-18T00:20:08;10.30;;;6.87;;
55350;SDS011;62194;49.480;10.986;2023-11-18T00:20:14;10.32;;;6.93;;
55350;SDS011;62194;49.480;10.986;2023-11-18T00:20:21;10.12;;;7.00;;
55350;SDS011;62194;49.480;10.986;2023-11-18T00:20:29;9.58;;;6.62;;
55350;SDS011;62194;49.480;10.986;2023-11-18T00:20:35;7.90;;;6.20;;
55350;SDS011;62194;49.480;10.986;2023-11-18T00:20:41;7.23;;;5.80;;
55350;SDS011;62194;49.480;10.986;2023-11-18T00:20:47;6.78;;;5.66;;
55350;SDS011;62194;49.480;10.986;2023-11-18T00:20:55;6.46;;;5.44;;
55350;SDS011;62194;49.480;10.986;2023-11-18T00:21:02;7.20;;;5.60;;
55350;SDS011;62194;49.480;10.986;2023-11-18T00:21:07;7.70;;;5.60;;
55350;SDS011;62194;49.480;10.986;2023-11-18T00:21:13;8.43;;;5.83;;
55350;SDS011;62194;49.480;10.986;2023-11-18T00:21:18;8.77;;;5.73;;
55350;SDS011;62194;49.480;10.986;2023-11-18T00:21:23;9.43;;;5.93;;
55350;SDS011;62194;49.480;10.986;2023-11-18T00:21:29;9.30;;;6.10;;
55350;SDS011;62194;49.480;10.986;2023-11-18T00:21:34;9.03;;;6.07;;
55350;SDS011;62194;49.480;10.986;2023-11-18T00:21:41;8.62;;;6.02;;
55350;SDS011;62194;49.480;10.986;2023-11-18T00:21:47;8.17;;;5.83;;
55350;SDS011;62194;49.480;10.986;2023-11-18T00:21:53;8.13;;;6.00;;
55350;SDS011;62194;49.480;10.986;2023-11-18T00:21:58;7.50;;;5.80;;
55350;SDS011;62194;49.480;10.986;2023-11-18T00:22:03;8.00;;;5.73;;
55350;SDS011;62194;49.480;10.986;2023-11-18T00:22:09;8.27;;;5.73;;
55350;SDS011;62194;49.480;10.986;2023-11-18T00:22:14;8.37;;;5.83;;
55350;SDS011;62194;49.480;10.986;2023-11-18T00:22:19;8.38;;;5.75;;
55350;SDS011;62194;49.480;10.986;2023-11-18T00:22:24;8.00;;;5.60;;
55350;SDS011;62194;49.480;10.986;2023-11-18T00:22:30;8.33;;;5.70;;
55350;SDS011;62194;49.480;10.986;2023-11-18T00:22:35;8.33;;;5.93;;
55350;SDS011;62194;49.480;10.986;2023-11-18T00:22:41;8.52;;;6.15;;
55350;SDS011;62194;49.480;10.986;2023-11-18T00:22:47;8.93;;;6.47;;
55350;SDS011;62194;49.480;10.986;2023-11-18T00:22:52;9.15;;;6.63;;
55350;SDS011;62194;49.480;10.986;2023-11-18T00:22:58;9.10;;;6.67;;
55350;SDS011;62194;49.480;10.986;2023-11-18T00:23:03;9.10;;;6.63;;
55350;SDS011;62194;49.480;10.986;2023-11-18T00:23:11;8.45;;;6.53;;
55350;SDS011;62194;49.480;10.986;2023-11-18T00:23:17;8.43;;;6.63;;
55350;SDS011;62194;49.480;10.986;2023-11-18T00:23:23;9.47;;;6.73;;
55350;SDS011;62194;49.480;10.986;2023-11-18T00:23:28;9.60;;;6.72;;
55350;SDS011;62194;49.480;10.986;2023-11-18T00:23:34;9.63;;;6.73;;
55350;SDS011;62194;49.480;10.986;2023-11-18T00:23:39;9.65;;;6.70;;
55350;SDS011;62194;49.480;10.986;2023-11-18T00:23:45;9.40;;;6.67;;
55350;SDS011;62194;49.480;10.986;2023-11-18T00:23:50;8.50;;;6.63;;
55350;SDS011;62194;49.480;10.986;2023-11-18T00:23:56;7.80;;;6.47;;
55350;SDS011;62194;49.480;10.986;2023-11-18T00:24:01;8.03;;;6.43;;
55350;SDS011;62194;49.480;10.986;2023-11-18T00:24:06;8.13;;;6.43;;
55350;SDS011;62194;49.480;10.986;2023-11-18T00:24:13;7.97;;;6.25;;
55350;SDS011;62194;49.480;10.986;2023-11-18T00:24:19;8.67;;;6.17;;
55350;SDS011;62194;49.480;10.986;2023-11-18T00:24:24;8.67;;;6.17;;
55350;SDS011;62194;49.480;10.986;2023-11-18T00:24:29;8.73;;;6.20;;
55350;SDS011;62194;49.480;10.986;2023-11-18T00:24:35;8.90;;;6.38;;
55350;SDS011;62194;49.480;10.986;2023-11-18T00:24:40;9.23;;;6.47;;
55350;SDS011;62194;49.480;10.986;2023-11-18T00:24:45;8.37;;;6.43;;
55350;SDS011;62194;49.480;10.986;2023-11-18T00:24:50;8.57;;;6.50;;
55350;SDS011;62194;49.480;10.986;2023-11-18T00:24:57;8.60;;;6.50;;
55350;SDS011;62194;49.480;10.986;2023-11-18T00:25:02;8.07;;;6.33;;
55350;SDS011;62194;49.480;10.986;2023-11-18T00:25:12;7.75;;;6.30;;
55350;SDS011;62194;49.480;10.986;2023-11-18T00:25:19;7.63;;;6.20;;
55350;SDS011;62194;49.480;10.986;2023-11-18T00:25:24;7.30;;;6.10;;
55350;SDS011;62194;49.480;10.986;2023-11-18T00:25:30;7.30;;;6.07;;
55350;SDS011;62194;49.480;10.986;2023-11-18T00:25:36;7.33;;;5.90;;
55350;SDS011;62194;49.480;10.986;2023-11-18T00:25:44;7.60;;;5.93;;
55350;SDS011;62194;49.480;10.986;2023-11-18T00:25:50;7.50;;;5.97;;
55350;SDS011;62194;49.480;10.986;2023-11-18T00:25:57;7.22;;;5.96;;
55350;SDS011;62194;49.480;10.986;2023-11-18T00:26:03;7.15;;;5.90;;
55350;SDS011;62194;49.480;10.986;2023-11-18T00:26:08;7.10;;;5.87;;
55350;SDS011;62194;49.480;10.986;2023-11-18T00:26:15;7.50;;;5.87;;
55350;SDS011;62194;49.480;10.986;2023-11-18T00:26:20;7.63;;;5.73;;
55350;SDS011;62194;49.480;10.986;2023-11-18T00:26:25;7.70;;;5.63;;
55350;SDS011;62194;49.480;10.986;2023-11-18T00:26:31;7.90;;;5.63;;
55350;SDS011;62194;49.480;10.986;2023-11-18T00:26:36;8.03;;;5.57;;
55350;SDS011;62194;49.480;10.986;2023-11-18T00:26:41;8.38;;;5.53;;
55350;SDS011;62194;49.480;10.986;2023-11-18T00:26:47;8.13;;;5.50;;
55350;SDS011;62194;49.480;10.986;2023-11-18T00:26:52;7.77;;;5.50;;
55350;SDS011;62194;49.480;10.986;2023-11-18T00:26:57;7.72;;;5.57;;
55350;SDS011;62194;49.480;10.986;2023-11-18T00:27:03;7.30;;;5.60;;
55350;SDS011;62194;49.480;10.986;2023-11-18T00:27:12;6.76;;;5.66;;
55350;SDS011;62194;49.480;10.986;2023-11-18T00:27:18;7.00;;;5.60;;
55350;SDS011;62194;49.480;10.986;2023-11-18T00:27:23;7.80;;;5.85;;
55350;SDS011;62194;49.480;10.986;2023-11-18T00:27:30;8.65;;;5.85;;
55350;SDS011;62194;49.480;10.986;2023-11-18T00:27:35;8.73;;;5.90;;
55350;SDS011;62194;49.480;10.986;2023-11-18T00:27:43;8.60;;;5.72;;
55350;SDS011;62194;49.480;10.986;2023-11-18T00:27:48;7.45;;;5.53;;
55350;SDS011;62194;49.480;10.986;2023-11-18T00:27:53;7.07;;;5.40;;
55350;SDS011;62194;49.480;10.986;2023-11-18T00:27:59;6.45;;;5.60;;
55350;SDS011;62194;49.480;10.986;2023-11-18T00:28:04;6.40;;;5.60;;
55350;SDS011;62194;49.480;10.986;2023-11-18T00:28:12;6.30;;;5.57;;
55350;SDS011;62194;49.480;10.986;2023-11-18T00:28:17;6.67;;;5.63;;
55350;SDS011;62194;49.480;10.986;2023-11-18T00:28:24;6.75;;;5.75;;
55350;SDS011;62194;49.480;10.986;2023-11-18T00:28:29;6.80;;;5.63;;
55350;SDS011;62194;49.480;10.986;2023-11-18T00:28:35;7.60;;;5.70;;
55350;SDS011;62194;49.480;10.986;2023-11-18T00:28:40;7.70;;;5.77;;
55350;SDS011;62194;49.480;10.986;2023-11-18T00:28:45;7.53;;;5.63;;
55350;SDS011;62194;49.480;10.986;2023-11-18T00:28:50;7.60;;;5.60;;
55350;SDS011;62194;49.480;10.986;2023-11-18T00:28:56;7.77;;;5.50;;
55350;SDS011;62194;49.480;10.986;2023-11-18T00:29:01;7.70;;;5.35;;
55350;SDS011;62194;49.480;10.986;2023-11-18T00:29:06;6.87;;;5.30;;
55350;SDS011;62194;49.480;10.986;2023-11-18T00:29:12;6.80;;;5.38;;
55350;SDS011;62194;49.480;10.986;2023-11-18T00:29:17;6.87;;;5.50;;
55350;SDS011;62194;49.480;10.986;2023-11-18T00:29:23;7.05;;;5.45;;
55350;SDS011;62194;49.480;10.986;2023-11-18T00:29:28;7.10;;;5.37;;
55350;SDS011;62194;49.480;10.986;2023-11-18T00:29:33;7.00;;;5.33;;
55350;SDS011;62194;49.480;10.986;2023-11-18T00:29:40;7.22;;;5.40;;
55350;SDS011;62194;49.480;10.986;2023-11-18T00:29:46;7.27;;;5.27;;
55350;SDS011;62194;49.480;10.986;2023-11-18T00:29:51;6.82;;;5.13;;
55350;SDS011;62194;49.480;10.986;2023-11-18T00:29:58;6.67;;;5.17;;
55350;SDS011;62194;49.480;10.986;2023-11-18T00:30:03;6.82;;;5.20;;
55350;SDS011;62194;49.480;10.986;2023-11-18T00:30:18;6.99;;;5.21;;
55350;SDS011;62194;49.480;10.986;2023-11-18T00:30:23;7.40;;;5.23;;
55350;SDS011;62194;49.480;10.986;2023-11-18T00:30:28;7.80;;;5.20;;
55350;SDS011;62194;49.480;10.986;2023-11-18T00:30:34;7.35;;;5.15;;
55350;SDS011;62194;49.480;10.986;2023-11-18T00:30:39;6.97;;;5.10;;
55350;SDS011;62194;49.480;10.986;2023-11-18T00:30:45;7.40;;;5.15;;
55350;SDS011;62194;49.480;10.986;2023-11-18T00:30:50;7.57;;;5.20;;
55350;SDS011;62194;49.480;10.986;2023-11-18T00:30:55;7.83;;;5.40;;
55350;SDS011;62194;49.480;10.986;2023-11-18T00:31:01;8.82;;;5.53;;
55350;SDS011;62194;49.480;10.986;2023-11-18T00:31:06;9.43;;;5.63;;
55350;SDS011;62194;49.480;10.986;2023-11-18T00:31:11;9.53;;;5.63;;
55350;SDS011;62194;49.480;10.986;2023-11-18T00:31:16;9.48;;;5.65;;
55350;SDS011;62194;49.480;10.986;2023-11-18T00:31:22;9.20;;;5.57;;
55350;SDS011;62194;49.480;10.986;2023-11-18T00:31:27;7.77;;;5.50;;
55350;SDS011;62194;49.480;10.986;2023-11-18T00:31:32;7.93;;;5.47;;
55350;SDS011;62194;49.480;10.986;2023-11-18T00:31:38;7.72;;;5.40;;
55350;SDS011;62194;49.480;10.986;2023-11-18T00:31:43;7.47;;;5.40;;
55350;SDS011;62194;49.480;10.986;2023-11-18T00:31:48;7.37;;;5.33;;
55350;SDS011;62194;49.480;10.986;2023-11-18T00:31:53;7.40;;;5.40;;
55350;SDS011;62194;49.480;10.986;2023-11-18T00:31:59;7.07;;;5.30;;
55350;SDS011;62194;49.480;10.986;2023-11-18T00:32:05;6.75;;;5.28;;
55350;SDS011;62194;49.480;10.986;2023-11-18T00:32:10;6.70;;;5.30;;
55350;SDS011;62194;49.480;10.986;2023-11-18T00:32:16;6.95;;;5.47;;
55350;SDS011;62194;49.480;10.986;2023-11-18T00:32:21;6.88;;;5.43;;
55350;SDS011;62194;49.480;10.986;2023-11-18T00:32:27;7.07;;;5.40;;
55350;SDS011;62194;49.480;10.986;2023-11-18T00:32:32;6.83;;;5.30;;
55350;SDS011;62194;49.480;10.986;2023-11-18T00:32:38;6.78;;;5.15;;
55350;SDS011;62194;49.480;10.986;2023-11-18T00:32:43;6.60;;;5.00;;
55350;SDS011;62194;49.480;10.986;2023-11-18T00:32:48;6.63;;;4.88;;
55350;SDS011;62194;49.480;10.986;2023-11-18T00:32:57;6.98;;;4.92;;
55350;SDS011;62194;49.480;10.986;2023-11-18T00:33:02;7.05;;;5.05;;
55350;SDS011;62194;49.480;10.986;2023-11-18T00:33:08;7.03;;;5.17;;
55350;SDS011;62194;49.480;10.986;2023-11-18T00:33:13;7.15;;;5.30;;
55350;SDS011;62194;49.480;10.986;2023-11-18T00:33:18;7.00;;;5.33;;
55350;SDS011;62194;49.480;10.986;2023-11-18T00:33:24;7.00;;;5.53;;
55350;SDS011;62194;49.480;10.986;2023-11-18T00:33:29;6.63;;;5.50;;
55350;SDS011;62194;49.480;10.986;2023-11-18T00:33:34;6.97;;;5.63;;
55350;SDS011;62194;49.480;10.986;2023-11-18T00:33:40;7.83;;;6.23;;
55350;SDS011;62194;49.480;10.986;2023-11-18T00:33:45;8.73;;;6.73;;
55350;SDS011;62194;49.480;10.986;2023-11-18T00:33:50;9.80;;;7.50;;
55350;SDS011;62194;49.480;10.986;2023-11-18T00:33:56;10.90;;;7.93;;
55350;SDS011;62194;49.480;10.986;2023-11-18T00:34:01;11.53;;;8.27;;
55350;SDS011;62194;49.480;10.986;2023-11-18T00:34:07;11.82;;;8.35;;
55350;SDS011;62194;49.480;10.986;2023-11-18T00:34:12;10.93;;;7.65;;
55350;SDS011;62194;49.480;10.986;2023-11-18T00:34:17;11.03;;;7.20;;
55350;SDS011;62194;49.480;10.986;2023-11-18T00:34:23;10.27;;;6.47;;